Time;durP1;ratioP1;P1;durP2;ratioP2;P2;SDS_P1;SDS_P2;PMS_P1;PMS_P2;Temp;Humidity;BMP_temperature;BMP_pressure;BME280_temperature;BME280_humidity;BME280_pressure;Samples;Min_cycle;Max_cycle;Signal;HPM_P1;HPM_P2
2021/03/21 00:01:15;;;;;;;22.30;6.78;;;6.20;99.90;;;;;;4961477;28;20043;-89
2021/03/21 00:03:41;;;;;;;25.40;10.48;;;6.20;99.90;;;;;;4971753;28;20895;-90
2021/03/21 00:06:07;;;;;;;26.67;7.28;;;6.20;99.90;;;;;;4968553;28;20043;-89
2021/03/21 00:08:33;;;;;;;22.13;6.32;;;6.20;99.90;;;;;;4982049;28;20126;-89
2021/03/21 00:11:06;;;;;;;33.47;8.60;;;6.10;99.90;;;;;;4971027;28;20488;-90
2021/03/21 00:13:34;;;;;;;31.92;9.73;;;6.20;99.90;;;;;;4963033;28;20054;-89
2021/03/21 00:16:03;;;;;;;18.52;5.95;;;6.20;99.90;;;;;;4971975;28;20041;-89
2021/03/21 00:18:35;;;;;;;22.27;6.03;;;6.20;99.90;;;;;;4972134;28;20130;-90
2021/03/21 00:21:02;;;;;;;28.38;10.27;;;6.20;99.90;;;;;;4972746;28;21006;-89
2021/03/21 00:23:28;;;;;;;18.77;6.18;;;6.20;99.90;;;;;;4967973;28;20058;-89
2021/03/21 00:25:54;;;;;;;36.80;10.15;;;6.20;99.90;;;;;;4937889;28;20051;-88
2021/03/21 00:28:24;;;;;;;26.60;8.10;;;6.20;99.90;;;;;;4973234;28;20042;-90
2021/03/21 00:30:51;;;;;;;32.35;8.65;;;6.20;99.90;;;;;;4971486;28;20067;-88
2021/03/21 00:33:20;;;;;;;36.47;9.77;;;6.20;99.90;;;;;;4953243;28;20130;-88
2021/03/21 00:35:46;;;;;;;19.60;8.52;;;6.20;99.90;;;;;;4967778;28;20619;-90
2021/03/21 00:38:20;;;;;;;24.73;9.05;;;6.20;99.90;;;;;;4954284;28;20046;-89
2021/03/21 00:40:47;;;;;;;26.98;8.60;;;6.20;99.90;;;;;;4972805;28;20127;-89
2021/03/21 00:43:13;;;;;;;16.67;6.55;;;6.20;99.90;;;;;;4973153;28;20089;-89
2021/03/21 00:45:39;;;;;;;22.58;7.45;;;6.20;99.90;;;;;;4939204;28;20483;-89
2021/03/21 00:48:19;;;;;;;27.15;7.05;;;6.20;99.90;;;;;;4971568;28;20070;-90
2021/03/21 00:50:45;;;;;;;25.95;7.07;;;6.20;99.90;;;;;;4939482;28;20070;-89
2021/03/21 00:53:12;;;;;;;16.33;5.43;;;6.10;99.90;;;;;;4955503;28;20509;-89
2021/03/21 00:55:38;;;;;;;25.75;8.35;;;6.20;99.90;;;;;;4972734;28;20121;-89
2021/03/21 00:58:05;;;;;;;23.95;7.88;;;6.20;99.90;;;;;;4956253;28;20559;-88
2021/03/21 01:00:39;;;;;;;15.15;5.47;;;6.30;99.90;;;;;;4972176;28;20042;-90
2021/03/21 01:03:06;;;;;;;18.73;5.95;;;6.30;99.90;;;;;;4969137;28;20041;-90
2021/03/21 01:05:36;;;;;;;29.83;9.93;;;6.20;99.90;;;;;;4954863;28;20038;-89
2021/03/21 01:08:04;;;;;;;24.73;7.43;;;6.20;99.90;;;;;;4955296;28;20141;-89
2021/03/21 01:10:34;;;;;;;20.05;7.97;;;6.20;99.90;;;;;;4923947;28;20110;-92
2021/03/21 01:13:00;;;;;;;30.70;9.25;;;6.30;99.90;;;;;;4972345;28;20117;-90
2021/03/21 01:15:28;;;;;;;31.27;10.45;;;6.30;99.90;;;;;;4954027;28;20043;-89
2021/03/21 01:17:55;;;;;;;36.13;11.07;;;6.20;99.90;;;;;;4953688;28;20065;-90
2021/03/21 01:20:24;;;;;;;22.48;8.38;;;6.30;99.90;;;;;;4956438;28;20039;-90
2021/03/21 01:22:50;;;;;;;19.70;7.18;;;6.20;99.90;;;;;;4952022;28;20174;-90
2021/03/21 01:25:20;;;;;;;16.35;5.90;;;6.30;99.90;;;;;;4972295;28;20050;-90
2021/03/21 01:27:46;;;;;;;44.25;13.18;;;6.30;99.90;;;;;;4954604;28;20084;-90
2021/03/21 01:30:16;;;;;;;28.48;10.27;;;6.20;99.90;;;;;;4973018;28;20051;-91
2021/03/21 01:32:42;;;;;;;12.63;5.57;;;6.20;99.90;;;;;;4971426;28;20130;-91
2021/03/21 01:35:09;;;;;;;26.85;9.60;;;6.10;99.90;;;;;;4971791;28;20129;-91
2021/03/21 01:37:35;;;;;;;29.30;10.55;;;6.20;99.90;;;;;;4971983;28;20077;-91
2021/03/21 01:40:01;;;;;;;31.92;9.93;;;6.10;99.90;;;;;;4955520;28;20468;-90
2021/03/21 01:42:37;;;;;;;16.98;5.53;;;6.10;99.90;;;;;;4971351;28;20047;-90
2021/03/21 01:45:27;;;;;;;22.00;4.97;;;6.00;99.90;;;;;;4971057;28;20069;-90
2021/03/21 01:47:53;;;;;;;13.88;4.57;;;6.00;99.90;;;;;;4971009;28;20034;-90
2021/03/21 01:50:39;;;;;;;21.55;5.07;;;6.00;99.90;;;;;;4972188;28;20534;-92
2021/03/21 01:53:07;;;;;;;12.02;2.53;;;6.00;99.90;;;;;;4971712;28;20061;-90
2021/03/21 01:55:33;;;;;;;22.15;4.95;;;6.00;99.90;;;;;;4955195;28;20046;-90
2021/03/21 01:57:59;;;;;;;23.85;6.18;;;6.00;99.90;;;;;;4951530;28;20480;-89
2021/03/21 02:00:26;;;;;;;22.08;5.97;;;6.00;99.90;;;;;;4966274;28;20058;-90
2021/03/21 02:02:52;;;;;;;11.65;4.70;;;6.00;99.90;;;;;;4971367;28;20051;-89
2021/03/21 02:05:18;;;;;;;11.80;2.58;;;6.00;99.90;;;;;;4971846;28;20047;-90
2021/03/21 02:08:11;;;;;;;18.20;5.10;;;6.10;99.90;;;;;;4971191;28;20070;-90
2021/03/21 02:11:01;;;;;;;20.02;5.18;;;6.10;99.90;;;;;;4970542;28;20042;-91
2021/03/21 02:13:37;;;;;;;21.30;4.95;;;6.10;99.90;;;;;;4971051;28;20394;-90
2021/03/21 02:16:10;;;;;;;16.17;5.15;;;6.20;99.90;;;;;;4971109;28;20046;-90
2021/03/21 02:19:06;;;;;;;20.63;5.80;;;6.10;99.90;;;;;;4938376;29;20055;-93
2021/03/21 02:21:50;;;;;;;15.45;5.43;;;6.20;99.90;;;;;;4935563;29;20166;-89
2021/03/21 02:24:46;;;;;;;15.02;4.82;;;6.20;99.90;;;;;;4949323;29;20136;-89
2021/03/21 02:27:46;;;;;;;22.58;5.07;;;6.20;99.90;;;;;;4951067;29;20061;-90
2021/03/21 02:30:18;;;;;;;27.00;10.00;;;6.20;99.90;;;;;;4935082;29;20051;-90
2021/03/21 02:33:01;;;;;;;31.92;8.70;;;6.30;99.90;;;;;;4919032;29;20066;-90
2021/03/21 02:35:54;;;;;;;21.63;6.00;;;6.20;99.90;;;;;;4948242;28;20047;-90
2021/03/21 02:38:20;;;;;;;20.15;7.22;;;6.20;99.90;;;;;;4918443;29;20440;-90
2021/03/21 02:41:09;;;;;;;22.27;6.45;;;6.30;99.90;;;;;;4950375;29;20126;-89
2021/03/21 02:43:40;;;;;;;18.10;4.90;;;6.20;99.90;;;;;;4952054;28;20476;-90
2021/03/21 02:46:28;;;;;;;14.45;4.05;;;6.20;99.90;;;;;;4947408;28;20535;-89
2021/03/21 02:49:00;;;;;;;19.65;3.30;;;6.10;99.90;;;;;;4940663;29;20496;-90
2021/03/21 02:51:34;;;;;;;19.40;3.28;;;6.10;99.90;;;;;;4919572;29;20062;-90
2021/03/21 02:54:37;;;;;;;20.80;4.50;;;6.10;99.90;;;;;;4950653;28;20066;-90
2021/03/21 02:57:18;;;;;;;14.73;2.28;;;6.10;99.90;;;;;;4947494;28;20881;-91
2021/03/21 02:59:49;;;;;;;13.52;2.65;;;6.10;99.90;;;;;;4912125;29;20430;-90
2021/03/21 03:02:19;;;;;;;16.42;2.50;;;6.10;99.90;;;;;;4935038;29;20055;-90
2021/03/21 03:04:51;;;;;;;15.88;2.38;;;6.10;99.90;;;;;;4918681;29;20055;-90
2021/03/21 03:07:50;;;;;;;15.10;2.45;;;6.10;99.90;;;;;;4950672;28;20074;-90
2021/03/21 03:10:43;;;;;;;14.80;3.92;;;6.10;99.90;;;;;;4935248;29;20059;-90
2021/03/21 03:13:17;;;;;;;23.77;2.72;;;6.00;99.90;;;;;;4898621;29;20472;-90
2021/03/21 03:15:44;;;;;;;22.60;2.65;;;6.10;99.90;;;;;;4934503;29;20786;-90
2021/03/21 03:18:34;;;;;;;23.08;3.97;;;6.10;99.90;;;;;;4940602;28;20495;-90
2021/03/21 03:21:18;;;;;;;30.77;3.42;;;6.00;99.90;;;;;;4971017;28;20714;-89
2021/03/21 03:23:59;;;;;;;26.90;3.80;;;6.00;99.90;;;;;;4953885;28;20035;-91
2021/03/21 03:26:50;;;;;;;18.88;2.85;;;6.00;99.90;;;;;;4937821;28;20043;-91
2021/03/21 03:29:25;;;;;;;19.73;3.15;;;6.00;99.90;;;;;;4970965;28;20043;-90
2021/03/21 03:31:56;;;;;;;33.53;4.68;;;6.10;99.90;;;;;;4953702;28;20828;-90
2021/03/21 03:34:23;;;;;;;30.08;3.97;;;6.40;99.90;;;;;;4951468;28;20043;-91
2021/03/21 03:36:50;;;;;;;44.63;4.68;;;6.10;99.90;;;;;;4970837;28;20460;-91
2021/03/21 03:39:16;;;;;;;25.70;3.45;;;6.00;99.90;;;;;;4954528;28;20138;-90
2021/03/21 03:41:48;;;;;;;43.95;4.28;;;6.10;99.90;;;;;;4953666;28;20125;-89
2021/03/21 03:44:32;;;;;;;43.53;3.88;;;6.20;99.90;;;;;;4974391;28;20062;-89
2021/03/21 03:47:16;;;;;;;31.27;3.53;;;6.00;99.90;;;;;;4955955;28;20663;-89
2021/03/21 03:50:06;;;;;;;42.33;4.00;;;6.00;99.90;;;;;;4957226;28;20078;-89
2021/03/21 03:52:47;;;;;;;46.40;4.70;;;6.00;99.90;;;;;;4933596;29;20062;-91
2021/03/21 03:55:31;;;;;;;42.72;4.75;;;6.00;99.90;;;;;;4967067;28;20039;-91
2021/03/21 03:58:15;;;;;;;26.48;3.00;;;6.00;99.90;;;;;;4956730;28;20121;-90
2021/03/21 04:01:05;;;;;;;17.77;2.35;;;6.00;99.90;;;;;;4941159;28;20047;-89
2021/03/21 04:03:54;;;;;;;22.08;2.70;;;6.00;99.90;;;;;;4940637;28;20565;-88
2021/03/21 04:06:27;;;;;;;14.98;1.90;;;6.10;99.90;;;;;;4957268;28;20042;-89
2021/03/21 04:09:16;;;;;;;15.30;2.97;;;6.10;99.90;;;;;;4969400;28;20043;-88
2021/03/21 04:12:01;;;;;;;31.70;4.10;;;6.10;99.90;;;;;;4928614;28;20059;-89
2021/03/21 04:14:38;;;;;;;37.75;4.65;;;6.10;99.90;;;;;;4957094;28;20053;-89
2021/03/21 04:17:14;;;;;;;16.00;3.13;;;6.10;99.90;;;;;;4956460;28;20074;-90
2021/03/21 04:19:46;;;;;;;15.68;2.75;;;6.10;99.90;;;;;;4974059;28;20051;-90
2021/03/21 04:22:29;;;;;;;21.30;3.08;;;6.10;99.90;;;;;;4973690;28;20053;-89
2021/03/21 04:25:04;;;;;;;16.45;2.78;;;6.20;99.90;;;;;;4973511;28;20995;-89
2021/03/21 04:27:42;;;;;;;35.03;3.53;;;6.20;99.90;;;;;;4969384;28;20044;-90
2021/03/21 04:30:23;;;;;;;31.13;3.33;;;6.10;99.90;;;;;;4956352;28;20526;-89
2021/03/21 04:32:51;;;;;;;23.10;3.33;;;6.20;99.90;;;;;;4940594;28;20050;-90
2021/03/21 04:35:17;;;;;;;27.25;2.90;;;6.10;99.90;;;;;;4955967;28;20046;-89
2021/03/21 04:37:49;;;;;;;17.05;2.45;;;6.10;99.90;;;;;;4955606;28;20422;-88
2021/03/21 04:40:18;;;;;;;21.60;2.80;;;6.10;99.90;;;;;;4955506;28;20129;-90
2021/03/21 04:42:53;;;;;;;25.58;4.07;;;6.10;99.90;;;;;;4955826;28;20061;-89
2021/03/21 04:45:38;;;;;;;27.65;3.20;;;6.40;99.90;;;;;;4956208;28;20554;-90
2021/03/21 04:48:09;;;;;;;21.30;3.53;;;6.20;99.90;;;;;;4935034;28;20161;-89
2021/03/21 04:50:35;;;;;;;19.40;2.78;;;6.20;99.90;;;;;;4955445;28;20038;-88
2021/03/21 04:53:23;;;;;;;30.05;4.03;;;6.20;99.90;;;;;;4936834;28;20488;-88
2021/03/21 04:56:02;;;;;;;26.42;3.45;;;6.20;99.90;;;;;;4955217;28;20547;-88
2021/03/21 04:58:44;;;;;;;29.58;4.15;;;6.20;99.90;;;;;;4972526;28;20039;-88
2021/03/21 05:01:33;;;;;;;30.17;3.55;;;6.10;99.90;;;;;;4954095;28;20442;-88
2021/03/21 05:04:17;;;;;;;23.30;5.20;;;6.10;99.90;;;;;;4954489;28;20047;-88
2021/03/21 05:07:20;;;;;;;32.50;4.65;;;6.10;99.90;;;;;;4971188;28;20047;-88
2021/03/21 05:09:49;;;;;;;18.00;2.83;;;6.10;99.90;;;;;;4954825;28;20130;-89
2021/03/21 05:12:44;;;;;;;22.98;3.25;;;6.10;99.90;;;;;;4938609;28;20117;-89
2021/03/21 05:15:22;;;;;;;46.45;4.53;;;6.10;99.90;;;;;;4955253;28;20070;-87
2021/03/21 05:18:06;;;;;;;32.50;3.60;;;6.10;99.90;;;;;;4954162;28;20118;-88
2021/03/21 05:20:47;;;;;;;22.17;3.35;;;6.10;99.90;;;;;;4967908;28;20043;-88
2021/03/21 05:23:26;;;;;;;39.70;4.10;;;6.10;99.90;;;;;;4957764;28;20093;-88
2021/03/21 05:26:03;;;;;;;26.10;3.22;;;6.10;99.90;;;;;;4970013;28;20479;-88
2021/03/21 05:29:05;;;;;;;39.58;3.90;;;6.00;99.90;;;;;;4954837;28;20482;-88
2021/03/21 05:31:31;;;;;;;46.00;5.05;;;5.90;99.90;;;;;;4953339;28;20046;-87
2021/03/21 05:33:58;;;;;;;36.35;4.28;;;5.90;99.90;;;;;;4954044;28;20186;-89
2021/03/21 05:36:43;;;;;;;44.63;5.63;;;5.90;99.90;;;;;;4954083;28;20127;-89
2021/03/21 05:39:33;;;;;;;34.42;5.90;;;5.90;99.90;;;;;;4954409;28;20062;-89
2021/03/21 05:42:04;;;;;;;42.35;5.55;;;5.90;99.90;;;;;;4954751;28;20050;-91
2021/03/21 05:45:08;;;;;;;30.17;4.57;;;5.90;99.90;;;;;;4955154;28;20039;-89
2021/03/21 05:47:55;;;;;;;36.53;5.68;;;5.90;99.90;;;;;;4968207;28;20039;-89
2021/03/21 05:50:39;;;;;;;25.15;4.65;;;5.90;99.90;;;;;;4951867;29;20042;-89
2021/03/21 05:53:20;;;;;;;28.92;3.08;;;6.00;99.90;;;;;;4966501;28;20041;-89
2021/03/21 05:56:15;;;;;;;39.97;3.70;;;6.00;99.90;;;;;;4955007;28;20126;-90
2021/03/21 05:58:43;;;;;;;47.88;5.80;;;6.00;99.90;;;;;;4971330;28;20438;-90
2021/03/21 06:01:44;;;;;;;34.13;4.68;;;6.00;99.90;;;;;;4953985;28;20070;-90
2021/03/21 06:04:12;;;;;;;50.20;6.35;;;5.90;99.90;;;;;;4942675;28;20058;-90
2021/03/21 06:07:44;;;;;;;40.13;3.92;;;5.90;99.90;;;;;;4971084;28;20122;-91
2021/03/21 06:10:37;;;;;;;38.30;6.55;;;5.80;99.90;;;;;;4871363;29;20060;-90
2021/03/21 06:13:37;;;;;;;47.90;5.38;;;5.70;99.90;;;;;;4891823;29;20044;-90
2021/03/21 06:16:27;;;;;;;49.83;6.50;;;5.70;99.90;;;;;;4970995;28;20044;-92
2021/03/21 06:18:56;;;;;;;51.55;6.90;;;5.60;99.90;;;;;;4963797;28;20113;-89
2021/03/21 06:21:31;;;;;;;45.08;7.65;;;5.60;99.90;;;;;;4970460;28;20175;-90
2021/03/21 06:24:21;;;;;;;62.42;7.30;;;5.60;99.90;;;;;;4967698;28;20070;-88
2021/03/21 06:27:09;;;;;;;37.25;4.82;;;5.60;99.90;;;;;;4967398;28;20050;-88
2021/03/21 06:30:06;;;;;;;41.50;5.07;;;5.60;99.90;;;;;;4971449;28;20080;-87
2021/03/21 06:32:56;;;;;;;53.35;8.20;;;5.70;99.90;;;;;;4951016;28;20062;-88
2021/03/21 06:35:37;;;;;;;29.63;4.00;;;5.70;99.90;;;;;;4968401;28;20034;-87
2021/03/21 06:38:28;;;;;;;49.90;5.32;;;5.70;99.90;;;;;;4971598;28;20383;-90
2021/03/21 06:41:13;;;;;;;60.50;7.35;;;5.70;99.90;;;;;;4985931;28;20066;-88
2021/03/21 06:44:14;;;;;;;46.00;6.22;;;5.70;99.90;;;;;;4972533;28;20129;-89
2021/03/21 06:46:49;;;;;;;48.40;5.80;;;5.80;99.90;;;;;;4970924;28;20047;-89
2021/03/21 06:49:34;;;;;;;42.83;7.28;;;5.80;99.90;;;;;;4986040;28;20105;-88
2021/03/21 06:52:11;;;;;;;52.55;7.03;;;5.90;99.90;;;;;;4987139;28;20069;-88
2021/03/21 06:54:53;;;;;;;45.42;6.07;;;5.80;99.90;;;;;;4953528;28;20068;-88
2021/03/21 06:57:55;;;;;;;46.70;5.03;;;5.90;99.90;;;;;;4967873;28;20399;-88
2021/03/21 07:00:30;;;;;;;55.92;8.85;;;5.90;99.90;;;;;;4983813;28;20054;-88
2021/03/21 07:03:32;;;;;;;48.50;5.95;;;5.90;99.90;;;;;;4971864;28;20058;-89
2021/03/21 07:06:33;;;;;;;41.30;6.30;;;5.90;99.90;;;;;;4968581;28;20106;-88
2021/03/21 07:09:08;;;;;;;59.50;6.18;;;6.00;99.90;;;;;;4970045;28;20522;-88
2021/03/21 07:12:11;;;;;;;60.17;8.30;;;6.00;99.90;;;;;;4972094;28;20049;-88
2021/03/21 07:14:40;;;;;;;20.95;3.67;;;6.00;99.90;;;;;;4968818;28;20044;-88
2021/03/21 07:17:14;;;;;;;29.02;5.07;;;6.10;99.90;;;;;;4964405;28;20046;-90
2021/03/21 07:20:11;;;;;;;56.53;7.35;;;6.10;99.90;;;;;;4973354;28;20065;-89
2021/03/21 07:23:27;;;;;;;34.92;4.53;;;6.10;99.90;;;;;;4972780;28;20123;-89
2021/03/21 07:26:00;;;;;;;52.45;6.85;;;6.10;99.90;;;;;;4946393;28;20072;-88
2021/03/21 07:29:16;;;;;;;46.17;5.18;;;6.10;99.90;;;;;;4985264;28;20158;-89
2021/03/21 07:31:53;;;;;;;45.72;6.78;;;6.20;99.90;;;;;;4906391;29;20431;-89
2021/03/21 07:34:55;;;;;;;54.70;7.57;;;6.20;99.90;;;;;;4913324;29;20051;-89
2021/03/21 07:37:44;;;;;;;62.63;7.70;;;6.20;99.90;;;;;;4978832;28;20130;-89
2021/03/21 07:40:23;;;;;;;43.22;6.03;;;6.20;99.90;;;;;;4973442;28;20061;-89
2021/03/21 07:43:01;;;;;;;42.83;5.72;;;6.20;99.90;;;;;;4973197;28;20403;-89
2021/03/21 07:45:39;;;;;;;45.45;6.78;;;6.20;99.90;;;;;;4972011;28;20841;-89
2021/03/21 07:48:20;;;;;;;45.55;6.32;;;6.30;99.90;;;;;;4986920;28;20051;-89
2021/03/21 07:51:03;;;;;;;60.88;6.45;;;6.40;99.90;;;;;;4986316;28;20039;-89
2021/03/21 07:54:17;;;;;;;39.58;3.60;;;6.40;99.90;;;;;;4984876;28;20066;-89
2021/03/21 07:56:52;;;;;;;56.50;4.38;;;6.40;99.90;;;;;;4968961;28;20065;-89
2021/03/21 07:59:25;;;;;;;42.05;4.47;;;6.50;99.90;;;;;;4972546;28;20047;-89
2021/03/21 08:01:52;;;;;;;38.83;7.10;;;6.40;99.90;;;;;;4972841;28;20041;-88
2021/03/21 08:04:22;;;;;;;38.30;5.95;;;6.40;99.90;;;;;;4958259;28;20490;-89
2021/03/21 08:06:59;;;;;;;49.42;5.93;;;6.40;99.90;;;;;;4989644;28;20113;-89
2021/03/21 08:09:36;;;;;;;34.28;5.50;;;6.50;99.90;;;;;;4968848;28;20396;-88
2021/03/21 08:12:20;;;;;;;45.47;7.20;;;6.50;99.90;;;;;;4995725;28;20042;-89
2021/03/21 08:14:55;;;;;;;51.22;8.60;;;6.50;99.90;;;;;;4988798;28;20122;-89
2021/03/21 08:17:36;;;;;;;45.55;6.20;;;6.60;99.90;;;;;;4972012;28;20101;-89
2021/03/21 08:20:24;;;;;;;51.88;6.70;;;6.60;99.90;;;;;;4972878;28;20053;-89
2021/03/21 08:23:01;;;;;;;53.55;8.60;;;6.60;99.90;;;;;;4976253;28;20057;-89
2021/03/21 08:25:30;;;;;;;46.15;5.10;;;6.70;99.90;;;;;;4985139;28;20050;-89
2021/03/21 08:27:57;;;;;;;65.15;8.45;;;6.70;99.90;;;;;;4991699;28;20512;-89
2021/03/21 08:30:28;;;;;;;38.78;6.10;;;6.80;99.90;;;;;;4986505;28;20108;-89
2021/03/21 08:33:01;;;;;;;56.25;7.30;;;6.80;99.90;;;;;;4955770;28;20474;-89
2021/03/21 08:35:29;;;;;;;34.45;5.18;;;6.80;99.90;;;;;;4977526;28;20062;-89
2021/03/21 08:38:00;;;;;;;36.35;5.53;;;6.80;99.90;;;;;;4979445;28;20055;-87
2021/03/21 08:40:38;;;;;;;40.40;6.05;;;6.80;99.90;;;;;;4986218;28;20050;-90
2021/03/21 08:43:26;;;;;;;58.78;8.05;;;6.80;99.90;;;;;;4986303;28;20100;-90
2021/03/21 08:46:14;;;;;;;35.13;6.28;;;6.80;99.90;;;;;;4985532;28;20107;-90
2021/03/21 08:48:41;;;;;;;19.30;4.00;;;6.80;99.90;;;;;;4964087;28;20491;-91
2021/03/21 08:51:10;;;;;;;47.60;7.00;;;6.80;99.90;;;;;;4955751;28;20092;-88
2021/03/21 08:53:57;;;;;;;41.83;4.82;;;6.80;99.90;;;;;;4991144;28;20042;-90
2021/03/21 08:56:26;;;;;;;35.13;4.45;;;6.80;99.90;;;;;;4971584;28;20035;-88
2021/03/21 08:59:10;;;;;;;52.43;7.83;;;6.90;99.90;;;;;;4968480;28;20125;-88
2021/03/21 09:01:36;;;;;;;50.75;6.68;;;7.00;99.90;;;;;;4975019;28;20166;-88
2021/03/21 09:04:13;;;;;;;67.60;9.45;;;6.80;99.90;;;;;;4977368;28;20516;-88
2021/03/21 09:06:42;;;;;;;46.00;6.13;;;6.90;99.90;;;;;;4974757;28;20102;-88
2021/03/21 09:09:22;;;;;;;46.47;7.80;;;6.90;99.90;;;;;;4974403;28;20047;-89
2021/03/21 09:11:54;;;;;;;47.03;5.82;;;6.90;99.90;;;;;;4971428;28;20050;-89
2021/03/21 09:14:32;;;;;;;52.65;7.68;;;7.00;99.90;;;;;;4970458;28;20050;-89
2021/03/21 09:17:17;;;;;;;38.50;5.97;;;7.10;99.90;;;;;;4970916;28;20050;-89
2021/03/21 09:19:45;;;;;;;71.22;9.52;;;7.10;99.90;;;;;;4982418;28;20050;-89
2021/03/21 09:22:35;;;;;;;70.13;8.68;;;7.00;99.90;;;;;;4978983;28;20043;-89
2021/03/21 09:25:16;;;;;;;51.40;6.63;;;7.10;99.90;;;;;;4970414;28;20055;-89
2021/03/21 09:27:43;;;;;;;38.97;5.43;;;7.10;99.90;;;;;;4994805;28;20102;-89
2021/03/21 09:30:13;;;;;;;60.20;7.22;;;7.10;99.90;;;;;;4982040;28;20049;-90
2021/03/21 09:32:39;;;;;;;35.38;5.43;;;7.10;99.90;;;;;;4970685;28;20118;-89
2021/03/21 09:35:29;;;;;;;48.80;7.57;;;7.10;99.90;;;;;;4960728;28;20129;-89
2021/03/21 09:38:01;;;;;;;40.80;5.03;;;7.00;99.90;;;;;;4977865;28;20146;-90
2021/03/21 09:40:29;;;;;;;31.02;5.90;;;7.10;99.90;;;;;;4981857;28;20039;-88
2021/03/21 09:42:55;;;;;;;38.10;5.97;;;7.10;99.90;;;;;;4978445;28;20498;-88
2021/03/21 09:45:21;;;;;;;34.47;5.45;;;7.00;99.90;;;;;;4975284;28;20050;-89
2021/03/21 09:48:01;;;;;;;30.40;5.22;;;7.00;99.90;;;;;;4984034;28;20066;-89
2021/03/21 09:50:47;;;;;;;61.65;6.93;;;7.00;99.90;;;;;;4992115;28;20078;-89
2021/03/21 09:53:37;;;;;;;40.38;5.97;;;7.10;99.90;;;;;;4978926;28;20043;-88
2021/03/21 09:56:19;;;;;;;24.98;4.05;;;7.10;99.90;;;;;;4964821;28;20410;-89
2021/03/21 09:59:11;;;;;;;28.75;4.03;;;7.10;99.90;;;;;;4973615;28;20038;-88
2021/03/21 10:01:49;;;;;;;43.08;5.10;;;7.10;99.90;;;;;;4979388;28;20495;-89
2021/03/21 10:04:39;;;;;;;50.00;6.68;;;7.10;99.90;;;;;;4994483;28;20042;-89
2021/03/21 10:07:16;;;;;;;48.65;8.60;;;7.20;99.90;;;;;;4981041;28;20037;-89
2021/03/21 10:09:45;;;;;;;23.38;4.07;;;7.10;99.90;;;;;;4979779;28;20039;-89
2021/03/21 10:12:12;;;;;;;22.63;4.78;;;7.10;99.90;;;;;;4971485;28;20050;-90
2021/03/21 10:14:38;;;;;;;33.25;4.20;;;7.10;99.90;;;;;;4978854;28;20038;-89
2021/03/21 10:17:18;;;;;;;46.70;6.90;;;7.10;99.90;;;;;;4971461;28;20073;-89
2021/03/21 10:19:47;;;;;;;44.58;5.78;;;7.20;99.90;;;;;;4965473;28;20047;-89
2021/03/21 10:22:25;;;;;;;81.18;8.95;;;7.10;99.90;;;;;;4964185;28;20470;-89
2021/03/21 10:24:57;;;;;;;41.90;6.80;;;7.20;99.90;;;;;;4969181;28;20456;-89
2021/03/21 10:27:36;;;;;;;62.05;8.40;;;7.20;99.90;;;;;;4970255;28;20122;-90
2021/03/21 10:30:09;;;;;;;44.38;6.88;;;7.20;99.90;;;;;;4957698;28;20047;-89
2021/03/21 10:32:39;;;;;;;53.67;7.60;;;7.20;99.90;;;;;;4984985;28;20062;-88
2021/03/21 10:35:14;;;;;;;34.83;5.28;;;7.20;99.90;;;;;;4969280;28;20057;-89
2021/03/21 10:37:43;;;;;;;30.42;4.60;;;7.20;99.90;;;;;;4969756;28;20051;-88
2021/03/21 10:40:17;;;;;;;41.60;5.75;;;7.10;99.90;;;;;;4985834;28;20455;-88
2021/03/21 10:42:47;;;;;;;34.15;5.05;;;7.10;99.90;;;;;;4969158;28;20038;-89
2021/03/21 10:45:30;;;;;;;29.13;5.07;;;7.00;99.90;;;;;;4980787;28;20059;-88
2021/03/21 10:47:58;;;;;;;47.22;6.05;;;7.10;99.90;;;;;;4964004;28;20325;-88
2021/03/21 10:50:29;;;;;;;51.83;7.65;;;7.20;99.90;;;;;;4973310;28;20049;-87
2021/03/21 10:53:44;;;;;;;45.45;7.20;;;7.30;99.90;;;;;;4967433;28;20468;-87
2021/03/21 10:56:16;;;;;;;52.05;7.32;;;7.30;99.90;;;;;;4961632;28;20073;-87
2021/03/21 10:58:45;;;;;;;33.10;4.95;;;7.40;99.90;;;;;;4972571;28;20035;-86
2021/03/21 11:01:20;;;;;;;58.83;9.77;;;7.40;99.90;;;;;;4983678;28;20062;-87
2021/03/21 11:03:58;;;;;;;55.53;6.90;;;7.60;99.90;;;;;;4969800;28;20057;-87
2021/03/21 11:06:27;;;;;;;42.75;7.70;;;7.60;99.90;;;;;;4985019;28;20491;-87
2021/03/21 11:08:53;;;;;;;56.05;8.77;;;7.60;99.90;;;;;;4971224;28;20552;-87
2021/03/21 11:11:33;;;;;;;49.90;6.82;;;7.60;99.90;;;;;;4968724;28;20051;-86
2021/03/21 11:14:30;;;;;;;37.38;5.30;;;7.60;99.90;;;;;;4979967;28;20100;-87
2021/03/21 11:17:02;;;;;;;50.72;7.13;;;7.60;99.90;;;;;;4969380;28;20092;-87
2021/03/21 11:19:34;;;;;;;47.72;6.15;;;7.50;99.90;;;;;;4969617;28;20082;-87
2021/03/21 11:22:09;;;;;;;42.75;6.72;;;7.60;99.90;;;;;;4969751;28;20754;-87
2021/03/21 11:24:36;;;;;;;37.55;4.55;;;7.60;99.90;;;;;;4952000;28;20474;-87
2021/03/21 11:27:05;;;;;;;39.47;6.65;;;7.60;99.90;;;;;;4952163;28;20049;-87
2021/03/21 11:29:36;;;;;;;40.72;6.40;;;7.60;99.90;;;;;;4952031;28;20051;-87
2021/03/21 11:32:28;;;;;;;54.63;8.02;;;7.50;99.90;;;;;;4969499;28;20046;-87
2021/03/21 11:35:12;;;;;;;44.08;5.30;;;7.50;99.90;;;;;;4950875;28;20434;-87
2021/03/21 11:37:43;;;;;;;57.15;7.45;;;7.50;99.90;;;;;;4951034;28;20127;-87
2021/03/21 11:40:27;;;;;;;44.17;6.38;;;7.50;99.90;;;;;;4968771;28;20049;-86
2021/03/21 11:43:30;;;;;;;37.40;5.60;;;7.50;99.90;;;;;;4970967;28;20118;-87
2021/03/21 11:46:30;;;;;;;43.50;6.28;;;7.50;99.90;;;;;;4969515;28;20047;-87
2021/03/21 11:48:58;;;;;;;60.38;8.57;;;7.40;99.90;;;;;;4939118;28;20106;-87
2021/03/21 11:51:25;;;;;;;65.03;9.07;;;7.30;99.90;;;;;;4950171;28;20043;-86
2021/03/21 11:53:52;;;;;;;38.28;5.22;;;7.30;99.90;;;;;;4975004;28;20039;-87
2021/03/21 11:56:22;;;;;;;38.83;6.07;;;7.40;99.90;;;;;;4936330;28;20043;-88
2021/03/21 11:58:59;;;;;;;67.03;7.93;;;7.30;99.90;;;;;;4964357;28;20054;-87
2021/03/21 12:01:40;;;;;;;44.50;7.13;;;7.40;99.90;;;;;;4953131;28;20035;-87
2021/03/21 12:04:09;;;;;;;43.92;7.40;;;7.40;99.90;;;;;;4949733;28;20395;-88
2021/03/21 12:06:48;;;;;;;42.60;6.37;;;7.50;99.90;;;;;;4956036;28;20387;-89
2021/03/21 12:09:33;;;;;;;45.25;5.55;;;7.50;99.90;;;;;;4968644;28;20035;-88
2021/03/21 12:12:03;;;;;;;54.20;7.10;;;7.50;99.90;;;;;;4974133;28;20046;-87
2021/03/21 12:14:31;;;;;;;49.47;8.55;;;7.70;99.90;;;;;;4971740;28;20059;-88
2021/03/21 12:17:23;;;;;;;48.05;7.30;;;7.70;99.90;;;;;;4952631;28;20035;-87
2021/03/21 12:19:51;;;;;;;42.92;6.55;;;7.70;99.90;;;;;;4967068;28;20522;-88
2021/03/21 12:22:25;;;;;;;55.17;6.63;;;7.70;99.90;;;;;;4967586;28;20055;-87
2021/03/21 12:24:54;;;;;;;59.75;8.70;;;7.70;99.90;;;;;;4986769;28;20117;-87
2021/03/21 12:27:38;;;;;;;51.55;6.95;;;7.80;99.90;;;;;;4985661;28;20051;-87
2021/03/21 12:30:35;;;;;;;38.67;5.88;;;7.70;99.90;;;;;;4972409;28;20047;-87
2021/03/21 12:33:33;;;;;;;50.47;6.95;;;7.60;99.90;;;;;;4974880;28;20534;-87
2021/03/21 12:36:03;;;;;;;50.60;7.18;;;7.60;99.90;;;;;;4970025;28;20055;-87
2021/03/21 12:38:36;;;;;;;38.28;5.18;;;7.60;99.90;;;;;;4977699;28;20038;-87
2021/03/21 12:41:33;;;;;;;44.10;6.38;;;7.60;99.90;;;;;;4985637;28;20042;-87
2021/03/21 12:44:19;;;;;;;49.03;5.85;;;7.50;99.90;;;;;;4980347;28;20676;-88
2021/03/21 12:46:45;;;;;;;53.25;6.90;;;7.40;99.90;;;;;;4965039;28;20031;-87
2021/03/21 12:49:31;;;;;;;55.90;6.75;;;7.50;99.90;;;;;;4967325;28;20065;-88
2021/03/21 12:52:06;;;;;;;45.67;6.57;;;7.40;99.90;;;;;;4953633;28;20055;-87
2021/03/21 12:54:32;;;;;;;43.20;5.75;;;7.50;99.90;;;;;;4973450;28;20038;-85
2021/03/21 12:56:58;;;;;;;54.95;8.15;;;7.60;99.90;;;;;;4978824;28;20059;-88
2021/03/21 12:59:24;;;;;;;38.20;6.30;;;7.60;99.90;;;;;;4980110;28;20082;-87
2021/03/21 13:01:50;;;;;;;50.10;6.70;;;7.70;99.90;;;;;;4949327;28;20533;-86
2021/03/21 13:04:17;;;;;;;55.78;6.38;;;7.70;99.90;;;;;;4960912;28;20054;-87
2021/03/21 13:06:43;;;;;;;58.67;7.68;;;7.80;99.90;;;;;;4954835;28;20039;-88
2021/03/21 13:09:08;;;;;;;40.85;5.45;;;7.70;99.90;;;;;;4973889;28;20047;-86
2021/03/21 13:11:37;;;;;;;38.50;5.53;;;7.80;99.90;;;;;;4966248;28;20058;-85
2021/03/21 13:14:04;;;;;;;39.45;5.53;;;7.60;99.90;;;;;;4960268;28;20161;-86
2021/03/21 13:16:30;;;;;;;55.20;7.68;;;7.50;99.90;;;;;;4949639;28;20506;-84
2021/03/21 13:18:55;;;;;;;41.03;4.90;;;7.60;99.90;;;;;;4965572;28;20087;-85
2021/03/21 13:21:22;;;;;;;32.90;4.70;;;7.50;99.90;;;;;;4959297;28;20049;-85
2021/03/21 13:23:49;;;;;;;58.60;6.75;;;7.60;99.90;;;;;;4959371;28;20086;-88
2021/03/21 13:26:15;;;;;;;56.88;7.45;;;7.60;99.90;;;;;;4956270;28;20038;-87
2021/03/21 13:28:41;;;;;;;30.13;5.30;;;7.60;99.90;;;;;;4972694;28;20051;-87
2021/03/21 13:31:07;;;;;;;51.97;7.53;;;7.60;99.90;;;;;;4972819;28;20178;-85
2021/03/21 13:33:34;;;;;;;42.75;5.57;;;7.50;99.90;;;;;;4971445;28;20125;-86
2021/03/21 13:36:09;;;;;;;40.10;5.50;;;7.50;99.90;;;;;;4985402;28;20049;-85
2021/03/21 13:38:36;;;;;;;35.53;7.35;;;7.40;99.90;;;;;;4955816;28;20126;-86